Time;durP1;ratioP1;P1;durP2;ratioP2;P2;SDS_P1;SDS_P2;PMS_P1;PMS_P2;Temp;Humidity;BMP_temperature;BMP_pressure;BME280_temperature;BME280_humidity;BME280_pressure;Samples;Min_cycle;Max_cycle;Signal;HPM_P1;HPM_P2
2022/08/13 00:02:03;;;;;;;7.38;2.10;;;19.40;75.30;;;;;;4987586;28;20038;-85
2022/08/13 00:04:30;;;;;;;6.68;1.98;;;19.30;75.30;;;;;;4990455;28;20054;-85
2022/08/13 00:09:30;;;;;;;5.70;2.00;;;19.10;76.40;;;;;;4982314;28;20499;-85
2022/08/13 00:14:41;;;;;;;9.00;2.60;;;18.80;78.90;;;;;;4984006;28;20088;-85
2022/08/13 00:17:14;;;;;;;7.07;2.90;;;18.70;79.60;;;;;;4986443;28;20057;-85
2022/08/13 00:19:42;;;;;;;9.25;2.60;;;18.70;79.90;;;;;;4994424;28;20030;-85
2022/08/13 00:22:09;;;;;;;8.07;2.30;;;18.60;80.10;;;;;;4991802;28;20111;-85
2022/08/13 00:24:35;;;;;;;5.68;2.42;;;18.50;80.50;;;;;;4992158;28;20407;-85
2022/08/13 00:27:02;;;;;;;8.18;2.50;;;18.40;80.60;;;;;;4980716;28;20035;-84
2022/08/13 00:29:28;;;;;;;6.47;2.33;;;18.20;81.40;;;;;;4988634;28;20487;-85
2022/08/13 00:31:54;;;;;;;7.80;2.53;;;18.00;82.90;;;;;;4994448;28;20039;-85
2022/08/13 00:34:20;;;;;;;6.65;2.13;;;17.80;84.40;;;;;;4995829;28;20084;-85
2022/08/13 00:36:47;;;;;;;4.97;2.20;;;17.60;84.70;;;;;;4993816;28;20027;-84
2022/08/13 00:39:13;;;;;;;6.85;2.03;;;17.50;86.40;;;;;;4991038;28;20418;-85
2022/08/13 00:41:43;;;;;;;7.18;2.55;;;17.30;87.90;;;;;;4987990;28;20027;-85
2022/08/13 00:44:12;;;;;;;6.90;2.30;;;17.20;88.50;;;;;;4994589;28;20004;-84
2022/08/13 00:46:39;;;;;;;6.28;2.38;;;17.20;90.00;;;;;;4995275;28;20064;-84
2022/08/13 00:49:06;;;;;;;6.88;2.20;;;17.00;90.40;;;;;;4994660;28;20021;-84
2022/08/13 00:51:34;;;;;;;7.30;2.50;;;17.00;91.00;;;;;;4993124;28;20034;-84
2022/08/13 00:54:02;;;;;;;7.38;2.42;;;16.90;91.50;;;;;;4994978;28;20029;-84
2022/08/13 00:56:34;;;;;;;6.22;2.30;;;16.80;92.00;;;;;;4994900;28;20027;-85
2022/08/13 00:59:07;;;;;;;9.32;2.50;;;16.80;92.60;;;;;;4991965;28;20130;-85
2022/08/13 01:01:35;;;;;;;5.35;2.10;;;16.80;93.30;;;;;;4994369;28;20496;-84
2022/08/13 01:04:03;;;;;;;5.75;2.22;;;16.80;94.00;;;;;;4993481;28;20130;-85
2022/08/13 01:06:29;;;;;;;5.90;2.30;;;16.80;94.60;;;;;;4994690;28;20046;-84
2022/08/13 01:08:55;;;;;;;6.85;2.30;;;16.70;95.00;;;;;;4994465;28;20027;-85
2022/08/13 01:11:23;;;;;;;8.02;2.15;;;16.70;95.30;;;;;;4993126;28;20026;-85
2022/08/13 01:13:51;;;;;;;6.30;2.60;;;16.70;95.70;;;;;;4981467;28;20592;-84
2022/08/13 01:16:17;;;;;;;7.03;2.30;;;16.70;96.60;;;;;;4989130;28;20030;-85
2022/08/13 01:18:46;;;;;;;6.60;2.40;;;16.70;96.50;;;;;;4994905;28;20026;-84
2022/08/13 01:21:16;;;;;;;8.20;2.70;;;16.70;97.00;;;;;;4994791;28;20026;-84
2022/08/13 01:23:48;;;;;;;11.13;2.58;;;16.60;98.00;;;;;;4991248;28;20023;-84
2022/08/13 01:26:16;;;;;;;6.32;2.40;;;16.50;98.00;;;;;;4985270;28;20030;-85
2022/08/13 01:28:43;;;;;;;5.32;2.17;;;16.40;98.50;;;;;;4994296;28;20033;-85
2022/08/13 01:31:11;;;;;;;6.70;2.40;;;16.20;99.40;;;;;;4992039;28;20022;-85
2022/08/13 01:33:38;;;;;;;7.53;2.30;;;16.20;99.90;;;;;;4993173;28;20034;-84
2022/08/13 01:36:06;;;;;;;6.55;2.35;;;16.20;99.90;;;;;;4991292;28;20057;-85
2022/08/13 01:38:34;;;;;;;8.88;2.30;;;16.10;99.90;;;;;;4988288;28;20035;-84
2022/08/13 01:41:02;;;;;;;6.57;2.75;;;16.20;99.90;;;;;;4993080;28;20034;-84
2022/08/13 01:43:30;;;;;;;6.30;2.50;;;16.20;99.90;;;;;;4992082;28;20711;-83
2022/08/13 01:45:58;;;;;;;8.32;2.40;;;16.20;99.90;;;;;;4998280;28;20019;-84
2022/08/13 01:51:23;;;;;;;9.15;2.50;;;16.10;99.90;;;;;;4989259;28;20708;-83
2022/08/13 01:53:52;;;;;;;6.40;2.45;;;16.00;99.90;;;;;;4990584;28;20026;-83
2022/08/13 01:56:21;;;;;;;6.97;2.50;;;16.00;99.90;;;;;;4994110;28;20163;-84
2022/08/13 01:58:57;;;;;;;8.02;2.72;;;15.90;99.90;;;;;;4991546;28;20659;-83
2022/08/13 02:01:26;;;;;;;8.32;2.72;;;15.70;99.90;;;;;;4990818;28;20019;-82
2022/08/13 02:03:56;;;;;;;5.32;2.40;;;15.60;99.90;;;;;;4995280;28;20085;-83
2022/08/13 02:06:28;;;;;;;6.50;2.63;;;15.40;99.90;;;;;;4990137;28;20073;-83
2022/08/13 02:08:57;;;;;;;6.63;2.80;;;15.40;99.90;;;;;;4988106;28;20023;-83
2022/08/13 02:11:24;;;;;;;6.60;2.35;;;15.30;99.90;;;;;;4988461;28;20765;-83
2022/08/13 02:13:54;;;;;;;12.75;3.10;;;15.20;99.90;;;;;;4985329;28;20022;-83
2022/08/13 02:16:20;;;;;;;6.38;2.78;;;15.20;99.90;;;;;;4989638;28;20022;-82
2022/08/13 02:18:45;;;;;;;9.15;3.38;;;15.20;99.90;;;;;;4985398;28;20475;-83
2022/08/13 02:21:11;;;;;;;8.48;2.70;;;15.20;99.90;;;;;;4994386;28;20121;-83
2022/08/13 02:23:37;;;;;;;8.32;2.60;;;15.20;99.90;;;;;;5003503;28;20458;-83
2022/08/13 02:26:05;;;;;;;6.28;2.75;;;15.20;99.90;;;;;;4987846;28;20018;-83
2022/08/13 02:28:39;;;;;;;9.02;2.92;;;15.20;99.90;;;;;;4983032;28;20109;-82
2022/08/13 02:31:06;;;;;;;6.93;3.00;;;15.10;99.90;;;;;;4992042;28;20062;-83
2022/08/13 02:33:34;;;;;;;6.65;2.80;;;15.10;99.90;;;;;;4983013;28;20034;-82
2022/08/13 02:36:00;;;;;;;6.10;2.80;;;15.00;99.90;;;;;;4985066;28;20018;-83
2022/08/13 02:38:26;;;;;;;6.78;2.90;;;14.90;99.90;;;;;;4989879;28;20049;-82
2022/08/13 02:43:37;;;;;;;6.95;3.22;;;14.80;99.90;;;;;;4990029;28;20058;-82
2022/08/13 02:46:03;;;;;;;9.15;3.10;;;14.90;99.90;;;;;;4987968;28;20394;-83
2022/08/13 02:48:29;;;;;;;9.88;3.00;;;14.80;99.90;;;;;;5009643;28;20387;-83
2022/08/13 02:50:56;;;;;;;7.05;3.15;;;14.70;99.90;;;;;;4994089;28;20027;-82
2022/08/13 02:53:23;;;;;;;5.90;2.70;;;14.60;99.90;;;;;;4986061;28;20087;-83
2022/08/13 02:55:50;;;;;;;7.55;3.00;;;14.60;99.90;;;;;;4992151;28;20062;-83
2022/08/13 02:58:17;;;;;;;6.78;2.92;;;14.50;99.90;;;;;;4990299;28;20026;-82
2022/08/13 03:00:48;;;;;;;8.23;2.95;;;14.50;99.90;;;;;;4989120;28;20477;-82
2022/08/13 03:03:15;;;;;;;8.88;3.08;;;14.50;99.90;;;;;;4982396;28;20027;-83
2022/08/13 03:05:41;;;;;;;6.70;2.80;;;14.50;99.90;;;;;;4992199;28;20133;-83
2022/08/13 03:08:07;;;;;;;7.75;2.92;;;14.50;99.90;;;;;;4980394;28;20070;-83
2022/08/13 03:10:33;;;;;;;9.50;2.63;;;14.50;99.90;;;;;;4991913;28;20026;-82
2022/08/13 03:13:04;;;;;;;7.18;3.03;;;14.40;99.90;;;;;;4994126;28;20026;-82
2022/08/13 03:15:30;;;;;;;8.82;2.72;;;14.40;99.90;;;;;;4993968;28;20037;-83
2022/08/13 03:17:56;;;;;;;6.72;3.00;;;14.40;99.90;;;;;;4987224;28;20080;-82
2022/08/13 03:20:21;;;;;;;8.85;2.78;;;14.40;99.90;;;;;;4980717;28;20117;-82
2022/08/13 03:22:56;;;;;;;5.93;2.70;;;14.40;99.90;;;;;;4982880;28;20030;-82
2022/08/13 03:25:23;;;;;;;7.05;3.13;;;14.40;99.90;;;;;;4985087;28;20031;-83
2022/08/13 03:27:49;;;;;;;6.72;2.80;;;14.30;99.90;;;;;;4991776;28;20111;-83
2022/08/13 03:30:21;;;;;;;12.02;3.08;;;14.20;99.90;;;;;;4992357;28;20608;-82
2022/08/13 03:32:48;;;;;;;7.25;2.90;;;14.20;99.90;;;;;;4991175;28;20027;-83
2022/08/13 03:35:16;;;;;;;8.32;3.40;;;14.20;99.90;;;;;;4986510;28;20125;-82
2022/08/13 03:37:45;;;;;;;6.95;2.95;;;14.20;99.90;;;;;;4982111;28;20031;-83
2022/08/13 03:40:12;;;;;;;8.55;3.33;;;14.20;99.90;;;;;;5000968;28;20092;-83
2022/08/13 03:42:40;;;;;;;6.38;2.90;;;14.10;99.90;;;;;;4992286;28;20564;-82
2022/08/13 03:45:07;;;;;;;8.18;3.00;;;14.20;99.90;;;;;;4989318;28;20070;-83
2022/08/13 03:47:33;;;;;;;8.13;3.92;;;14.20;99.90;;;;;;4985528;28;20030;-83
2022/08/13 03:50:00;;;;;;;8.63;3.10;;;14.10;99.90;;;;;;4981928;28;20045;-82
2022/08/13 03:52:27;;;;;;;8.20;3.33;;;14.10;99.90;;;;;;4985585;28;20471;-83
2022/08/13 03:54:52;;;;;;;7.97;3.08;;;14.10;99.90;;;;;;4993462;28;20023;-82
2022/08/13 03:57:19;;;;;;;7.28;3.30;;;14.30;99.90;;;;;;4986630;28;20471;-82
2022/08/13 03:59:48;;;;;;;8.43;3.28;;;14.30;99.90;;;;;;4988518;28;20041;-82
2022/08/13 04:02:16;;;;;;;7.97;3.20;;;14.40;99.90;;;;;;4978565;28;20099;-82
2022/08/13 04:04:46;;;;;;;10.27;3.53;;;14.40;99.90;;;;;;4985538;28;20047;-83
2022/08/13 04:07:17;;;;;;;8.93;3.20;;;14.30;99.90;;;;;;4990636;28;20030;-83
2022/08/13 04:09:44;;;;;;;8.73;3.25;;;14.20;99.90;;;;;;4982701;28;20431;-82
2022/08/13 04:12:13;;;;;;;6.65;2.80;;;14.10;99.90;;;;;;4982694;28;20027;-82
2022/08/13 04:14:42;;;;;;;6.63;3.40;;;14.00;99.90;;;;;;4979866;28;20050;-82
2022/08/13 04:17:13;;;;;;;10.00;3.58;;;14.00;99.90;;;;;;4985028;28;20031;-82
2022/08/13 04:19:42;;;;;;;8.18;3.13;;;13.90;99.90;;;;;;4978543;28;20506;-82
2022/08/13 04:22:13;;;;;;;7.32;3.42;;;13.90;99.90;;;;;;4991915;28;20030;-81
2022/08/13 04:24:39;;;;;;;9.35;3.35;;;14.00;99.90;;;;;;4980921;28;20019;-81
2022/08/13 04:27:05;;;;;;;7.18;3.25;;;14.00;99.90;;;;;;4986546;28;20034;-81
2022/08/13 04:29:32;;;;;;;9.48;3.55;;;14.10;99.90;;;;;;4986459;28;20026;-81
2022/08/13 04:32:01;;;;;;;8.55;3.40;;;14.20;99.90;;;;;;4993378;28;20014;-81
2022/08/13 04:34:28;;;;;;;9.18;3.25;;;14.30;99.90;;;;;;4990123;28;20034;-81
2022/08/13 04:36:55;;;;;;;10.35;3.35;;;14.30;99.90;;;;;;4988129;28;20027;-84
2022/08/13 04:39:22;;;;;;;7.38;2.85;;;14.40;99.90;;;;;;4992622;28;20100;-85
2022/08/13 04:41:48;;;;;;;9.05;3.10;;;14.50;99.90;;;;;;4990243;28;20027;-85
2022/08/13 04:44:13;;;;;;;7.20;3.10;;;14.50;99.90;;;;;;5003319;28;20487;-85
2022/08/13 04:46:39;;;;;;;7.32;3.20;;;14.60;99.90;;;;;;4993155;28;20029;-85
2022/08/13 04:49:06;;;;;;;6.70;2.80;;;14.60;99.90;;;;;;4993505;28;20018;-84
2022/08/13 04:51:35;;;;;;;6.50;3.05;;;14.70;99.90;;;;;;4990622;28;20044;-85
2022/08/13 04:54:01;;;;;;;7.57;2.95;;;14.70;99.90;;;;;;4992305;28;20021;-85
2022/08/13 04:56:27;;;;;;;8.82;3.30;;;14.80;99.90;;;;;;4992834;28;20109;-85
2022/08/13 04:58:53;;;;;;;6.40;2.90;;;14.80;99.90;;;;;;4988440;28;20025;-85
2022/08/13 05:01:22;;;;;;;9.63;3.05;;;14.90;99.90;;;;;;4991821;28;20547;-85
2022/08/13 05:03:48;;;;;;;7.10;3.28;;;14.90;99.90;;;;;;4988021;28;20110;-85
2022/08/13 05:06:21;;;;;;;7.00;3.13;;;15.00;99.90;;;;;;4991879;28;20462;-85
2022/08/13 05:08:51;;;;;;;9.48;3.30;;;15.00;99.90;;;;;;4995597;28;20037;-85
2022/08/13 05:11:18;;;;;;;10.43;3.42;;;15.10;99.90;;;;;;4986159;28;20442;-85
2022/08/13 05:13:45;;;;;;;7.18;3.00;;;15.20;99.90;;;;;;4992059;28;20021;-85
2022/08/13 05:16:16;;;;;;;8.68;3.50;;;15.30;99.90;;;;;;4987076;28;20022;-84
2022/08/13 05:18:45;;;;;;;7.43;3.30;;;15.40;99.90;;;;;;4985674;28;20380;-85
2022/08/13 05:21:12;;;;;;;7.28;3.33;;;15.50;99.90;;;;;;4983598;28;20023;-85
2022/08/13 05:23:40;;;;;;;7.97;3.20;;;15.60;99.90;;;;;;4992705;28;20037;-85
2022/08/13 05:26:07;;;;;;;7.47;3.70;;;15.60;99.90;;;;;;4995646;28;20474;-85
2022/08/13 05:28:34;;;;;;;7.72;3.50;;;15.70;99.90;;;;;;4991442;28;20026;-85
2022/08/13 05:31:00;;;;;;;7.63;3.60;;;15.80;99.90;;;;;;4994416;28;20046;-85
2022/08/13 05:33:28;;;;;;;8.35;3.40;;;15.90;99.90;;;;;;4991150;28;20398;-85
2022/08/13 05:36:00;;;;;;;7.15;3.05;;;16.30;99.90;;;;;;4989143;28;20114;-84
2022/08/13 05:38:28;;;;;;;6.88;3.00;;;16.50;99.90;;;;;;4988354;28;20030;-85
2022/08/13 05:40:56;;;;;;;7.40;3.15;;;16.70;99.90;;;;;;4991587;28;20112;-86
2022/08/13 05:43:24;;;;;;;7.57;3.28;;;16.80;99.90;;;;;;4990777;28;20043;-85
2022/08/13 05:45:57;;;;;;;6.38;3.13;;;16.90;99.90;;;;;;4989453;28;20073;-85
2022/08/13 05:48:56;;;;;;;6.80;3.10;;;17.00;99.90;;;;;;4989786;28;20049;-85
2022/08/13 05:51:28;;;;;;;6.95;3.40;;;17.10;99.90;;;;;;4994459;28;20057;-85
2022/08/13 05:53:59;;;;;;;8.20;3.13;;;17.30;99.90;;;;;;4984306;28;20418;-85
2022/08/13 05:56:26;;;;;;;9.82;2.70;;;17.40;99.90;;;;;;4995010;28;20114;-85
2022/08/13 05:58:52;;;;;;;6.68;3.15;;;17.60;99.90;;;;;;4993098;28;20030;-85
2022/08/13 06:04:12;;;;;;;7.53;3.10;;;17.90;99.90;;;;;;4989272;28;20078;-83
2022/08/13 06:06:38;;;;;;;8.45;3.03;;;18.10;99.90;;;;;;4994966;28;20030;-83
2022/08/13 06:09:05;;;;;;;8.40;3.28;;;18.30;99.90;;;;;;4991636;28;20023;-83
2022/08/13 06:11:31;;;;;;;7.47;3.30;;;18.40;99.90;;;;;;4991693;28;20038;-83
2022/08/13 06:13:57;;;;;;;9.30;3.28;;;18.60;99.90;;;;;;4995153;28;20034;-83
2022/08/13 06:16:28;;;;;;;9.05;3.45;;;18.70;99.90;;;;;;4996005;28;20025;-83
2022/08/13 06:18:57;;;;;;;8.55;3.17;;;18.90;99.90;;;;;;4993065;28;20023;-83
2022/08/13 06:21:24;;;;;;;8.40;3.20;;;19.00;99.90;;;;;;4985330;28;20045;-83
2022/08/13 06:23:51;;;;;;;6.28;3.00;;;19.20;99.90;;;;;;4994904;28;20358;-83
2022/08/13 06:26:20;;;;;;;6.28;2.80;;;19.30;99.90;;;;;;4983654;28;20023;-82
2022/08/13 06:28:47;;;;;;;8.10;3.30;;;19.40;99.90;;;;;;4992767;28;20022;-83
2022/08/13 06:31:20;;;;;;;7.35;2.95;;;19.50;99.90;;;;;;4987816;28;20844;-83
2022/08/13 06:33:46;;;;;;;6.05;2.72;;;19.70;99.90;;;;;;4986662;28;20562;-83
2022/08/13 06:36:16;;;;;;;7.53;3.00;;;19.80;99.90;;;;;;4991879;28;20058;-83
2022/08/13 06:38:45;;;;;;;6.53;3.10;;;20.00;99.90;;;;;;4992131;28;20031;-83
2022/08/13 06:41:12;;;;;;;10.40;2.80;;;20.20;99.90;;;;;;4990982;28;20597;-84
2022/08/13 06:43:41;;;;;;;7.07;3.00;;;20.40;99.90;;;;;;5001052;28;20027;-83
2022/08/13 06:46:07;;;;;;;8.98;2.80;;;20.50;99.90;;;;;;4977896;28;20578;-83
2022/08/13 06:48:34;;;;;;;7.05;3.10;;;20.70;99.90;;;;;;4995511;28;20026;-83
2022/08/13 06:51:01;;;;;;;8.80;2.83;;;20.90;99.90;;;;;;4996486;28;20133;-83
2022/08/13 06:53:27;;;;;;;8.70;3.10;;;21.10;99.90;;;;;;5002359;28;20383;-83
2022/08/13 06:55:53;;;;;;;7.65;3.15;;;21.20;99.90;;;;;;4992157;28;20165;-83
2022/08/13 06:58:25;;;;;;;7.65;3.10;;;21.40;99.90;;;;;;4986614;28;20018;-84
2022/08/13 07:00:53;;;;;;;7.80;3.10;;;21.60;99.90;;;;;;4994027;28;20450;-83
2022/08/13 07:03:20;;;;;;;7.75;2.70;;;21.70;99.90;;;;;;4993865;28;20026;-83
2022/08/13 07:05:46;;;;;;;6.75;3.13;;;21.80;99.90;;;;;;4993458;28;20046;-83
2022/08/13 07:08:12;;;;;;;7.28;2.70;;;21.90;99.90;;;;;;4993861;28;20038;-83
2022/08/13 07:10:43;;;;;;;8.52;2.72;;;22.10;99.90;;;;;;4984317;28;20027;-83
2022/08/13 07:13:09;;;;;;;8.15;2.80;;;22.20;99.40;;;;;;4986899;28;20583;-83
2022/08/13 07:15:36;;;;;;;8.45;2.78;;;22.30;99.20;;;;;;4987693;28;20122;-83
2022/08/13 07:18:03;;;;;;;6.13;2.70;;;22.50;98.20;;;;;;4986148;28;20506;-83
2022/08/13 07:20:33;;;;;;;7.18;2.90;;;22.60;97.50;;;;;;4976965;28;20530;-83
2022/08/13 07:22:59;;;;;;;6.85;2.72;;;22.90;97.30;;;;;;4988131;28;20114;-82
2022/08/13 07:25:27;;;;;;;7.72;2.38;;;23.10;96.60;;;;;;4981074;28;20130;-83
2022/08/13 07:27:54;;;;;;;6.53;2.60;;;23.30;95.70;;;;;;4981625;28;20042;-83
2022/08/13 07:30:21;;;;;;;6.22;2.50;;;23.40;94.90;;;;;;4987569;28;20037;-83
2022/08/13 07:32:47;;;;;;;7.70;2.53;;;23.50;94.10;;;;;;4987057;28;20034;-83
2022/08/13 07:35:13;;;;;;;6.60;2.25;;;23.60;93.90;;;;;;4985655;28;20030;-83
2022/08/13 07:37:41;;;;;;;9.75;3.00;;;23.70;93.50;;;;;;4989225;28;20024;-83
2022/08/13 07:40:08;;;;;;;10.07;2.70;;;23.90;93.30;;;;;;4985556;28;20026;-84
2022/08/13 07:42:39;;;;;;;7.50;2.58;;;24.10;92.90;;;;;;4982543;28;20030;-84
2022/08/13 07:45:06;;;;;;;10.48;2.60;;;24.30;92.20;;;;;;4971431;28;20069;-83
2022/08/13 07:47:33;;;;;;;5.97;2.40;;;24.40;92.20;;;;;;4989072;28;20057;-83
2022/08/13 07:50:01;;;;;;;10.25;2.80;;;24.50;92.50;;;;;;4989988;28;20023;-84
2022/08/13 07:52:30;;;;;;;5.53;2.38;;;24.60;91.70;;;;;;4987079;28;20109;-83
2022/08/13 07:54:55;;;;;;;6.15;2.53;;;24.70;91.20;;;;;;4989838;28;20034;-83
2022/08/13 07:57:25;;;;;;;7.97;2.70;;;24.90;92.00;;;;;;4990873;28;20030;-83
2022/08/13 07:59:51;;;;;;;6.13;2.55;;;25.10;91.10;;;;;;4988732;28;20034;-83
2022/08/13 08:02:18;;;;;;;6.18;2.20;;;25.30;90.50;;;;;;4972270;28;20423;-83
2022/08/13 08:04:44;;;;;;;5.70;2.20;;;25.40;90.10;;;;;;4986054;28;20584;-83
2022/08/13 08:07:14;;;;;;;6.50;2.40;;;25.50;90.40;;;;;;4980581;28;20133;-83
2022/08/13 08:09:40;;;;;;;7.25;2.40;;;25.70;90.00;;;;;;4978484;28;20030;-83
2022/08/13 08:14:51;;;;;;;6.35;2.40;;;25.80;88.30;;;;;;4984014;28;20178;-83
2022/08/13 08:17:17;;;;;;;7.22;2.38;;;26.00;87.70;;;;;;4987565;28;20057;-83
2022/08/13 08:19:47;;;;;;;6.53;2.40;;;26.20;87.10;;;;;;4987358;28;20102;-83
2022/08/13 08:22:15;;;;;;;5.40;2.08;;;26.50;86.20;;;;;;4976436;28;20115;-83
2022/08/13 08:24:47;;;;;;;5.75;2.00;;;27.00;83.60;;;;;;4986990;28;20049;-84
2022/08/13 08:27:16;;;;;;;4.82;2.10;;;27.70;81.80;;;;;;4982579;28;20038;-84
2022/08/13 08:29:42;;;;;;;8.45;1.90;;;28.60;79.00;;;;;;4985466;28;20089;-83
2022/08/13 08:32:08;;;;;;;6.40;2.33;;;29.00;79.10;;;;;;4981514;28;20062;-83
2022/08/13 08:34:40;;;;;;;9.32;2.03;;;29.20;79.10;;;;;;4985006;28;20477;-83
2022/08/13 08:37:06;;;;;;;5.97;1.90;;;29.40;75.60;;;;;;4975154;28;20551;-84
2022/08/13 08:42:42;;;;;;;4.85;1.88;;;30.30;73.10;;;;;;4987147;28;20046;-83
2022/08/13 08:45:13;;;;;;;6.57;2.00;;;30.40;73.70;;;;;;4984456;28;20023;-84
2022/08/13 08:47:40;;;;;;;8.23;2.15;;;30.70;73.80;;;;;;4988560;28;20118;-84
2022/08/13 08:50:09;;;;;;;6.78;1.90;;;31.10;72.80;;;;;;4988916;28;20038;-84
2022/08/13 08:55:20;;;;;;;5.25;2.15;;;30.80;72.00;;;;;;4975253;28;20057;-84
2022/08/13 08:57:47;;;;;;;9.55;2.17;;;30.90;70.80;;;;;;4987675;28;20037;-84
2022/08/13 09:00:15;;;;;;;6.93;2.03;;;31.20;70.80;;;;;;4988010;28;20030;-84
2022/08/13 09:02:42;;;;;;;5.97;2.00;;;31.30;70.40;;;;;;4994567;28;20098;-84
2022/08/13 09:05:13;;;;;;;11.95;2.40;;;31.40;70.60;;;;;;4986641;28;20053;-84
2022/08/13 09:07:41;;;;;;;6.32;2.28;;;31.10;70.50;;;;;;4985898;28;20105;-83
2022/08/13 09:10:10;;;;;;;5.03;2.10;;;31.40;69.80;;;;;;4992125;28;20031;-84
2022/08/13 09:12:40;;;;;;;5.30;1.88;;;31.50;69.70;;;;;;4991481;28;20110;-84
2022/08/13 09:15:06;;;;;;;4.57;1.77;;;32.30;69.40;;;;;;4986745;28;20062;-84
2022/08/13 09:17:33;;;;;;;5.30;2.00;;;31.90;65.90;;;;;;4992347;28;20030;-84
2022/08/13 09:19:59;;;;;;;4.43;1.90;;;31.80;68.50;;;;;;4993764;28;20015;-83
2022/08/13 09:22:25;;;;;;;6.00;2.15;;;32.10;66.90;;;;;;4991206;28;20398;-84
2022/08/13 09:24:52;;;;;;;6.68;2.00;;;32.30;67.80;;;;;;4989178;28;20057;-84
2022/08/13 09:27:18;;;;;;;4.18;1.92;;;32.50;67.70;;;;;;4990084;28;20877;-84
2022/08/13 09:29:45;;;;;;;8.40;2.17;;;32.70;66.00;;;;;;4987861;28;20054;-84
2022/08/13 09:32:14;;;;;;;6.68;2.13;;;32.10;65.70;;;;;;4987125;28;20033;-83
2022/08/13 09:34:44;;;;;;;5.43;2.20;;;32.40;67.50;;;;;;5004163;28;20046;-84
2022/08/13 09:37:11;;;;;;;6.68;2.10;;;32.70;66.80;;;;;;4987521;28;20034;-84
2022/08/13 09:39:51;;;;;;;8.10;2.08;;;33.20;63.30;;;;;;4986698;28;20435;-84
2022/08/13 09:42:24;;;;;;;6.68;2.08;;;32.90;64.90;;;;;;4988609;28;20026;-84
2022/08/13 09:44:56;;;;;;;4.72;1.90;;;33.30;61.80;;;;;;4989388;28;20034;-84
2022/08/13 09:47:23;;;;;;;7.28;1.70;;;33.20;62.40;;;;;;4987129;28;20092;-84
2022/08/13 09:49:49;;;;;;;5.28;1.70;;;33.20;62.50;;;;;;4991134;28;20524;-81
2022/08/13 09:52:20;;;;;;;4.82;1.90;;;33.20;62.30;;;;;;4982882;28;20030;-84
2022/08/13 09:54:48;;;;;;;5.10;1.90;;;33.50;61.80;;;;;;4985197;28;20034;-84
2022/08/13 09:57:13;;;;;;;4.40;1.90;;;33.20;62.30;;;;;;4984984;28;20042;-84
2022/08/13 09:59:39;;;;;;;7.07;2.20;;;33.30;61.20;;;;;;4989245;28;20111;-83
2022/08/13 10:02:12;;;;;;;8.77;1.65;;;33.60;61.20;;;;;;4990557;28;20372;-84
2022/08/13 10:04:38;;;;;;;6.95;1.70;;;33.50;60.40;;;;;;4989260;28;20054;-83
2022/08/13 10:07:07;;;;;;;3.95;1.65;;;33.90;58.80;;;;;;4989051;28;20033;-84
2022/08/13 10:09:34;;;;;;;6.13;1.73;;;34.60;56.10;;;;;;4987893;28;20072;-83
2022/08/13 10:12:09;;;;;;;5.47;1.80;;;34.70;57.00;;;;;;4988712;28;20117;-84
2022/08/13 10:14:35;;;;;;;6.05;1.90;;;34.50;57.20;;;;;;5002801;28;20027;-84
2022/08/13 10:17:04;;;;;;;5.32;1.90;;;34.80;58.50;;;;;;4987630;28;20026;-83
2022/08/13 10:19:30;;;;;;;4.82;1.88;;;34.00;59.80;;;;;;4986522;28;20022;-83
2022/08/13 10:21:55;;;;;;;6.00;2.25;;;34.30;60.10;;;;;;4987307;28;20030;-84
2022/08/13 10:24:21;;;;;;;4.35;1.67;;;34.70;58.20;;;;;;4988598;28;20031;-84
2022/08/13 10:26:47;;;;;;;5.88;1.90;;;34.40;58.90;;;;;;4989730;28;20054;-84
2022/08/13 10:29:12;;;;;;;5.70;1.70;;;34.00;58.10;;;;;;4988439;28;20484;-84
2022/08/13 10:31:38;;;;;;;4.88;1.65;;;35.00;57.60;;;;;;4983253;28;20030;-84
2022/08/13 10:34:05;;;;;;;6.03;1.90;;;34.90;57.50;;;;;;4985813;28;20036;-84
2022/08/13 10:36:33;;;;;;;6.13;1.80;;;35.40;55.80;;;;;;4980451;28;20035;-84
2022/08/13 10:39:00;;;;;;;4.78;1.80;;;35.40;57.70;;;;;;4987928;28;20034;-84
2022/08/13 10:41:25;;;;;;;4.05;1.70;;;36.10;57.80;;;;;;4997422;28;20061;-84
2022/08/13 10:43:59;;;;;;;5.30;2.10;;;36.40;57.70;;;;;;4986129;28;20022;-84
2022/08/13 10:46:26;;;;;;;4.72;2.03;;;34.80;57.30;;;;;;5004366;28;20041;-84
2022/08/13 10:48:55;;;;;;;6.75;2.10;;;34.60;58.80;;;;;;4990044;28;20065;-85
2022/08/13 10:51:21;;;;;;;4.88;1.90;;;34.90;58.10;;;;;;4989895;28;20018;-84
2022/08/13 10:53:58;;;;;;;5.35;2.10;;;35.00;58.20;;;;;;4989053;28;20030;-84
2022/08/13 10:56:27;;;;;;;4.80;2.00;;;34.60;58.60;;;;;;5006465;28;20027;-84
2022/08/13 10:58:57;;;;;;;7.65;2.10;;;35.50;57.60;;;;;;4983671;28;20054;-84
2022/08/13 11:01:24;;;;;;;6.45;2.05;;;34.50;58.20;;;;;;4983981;28;20544;-83
2022/08/13 11:03:56;;;;;;;4.80;2.20;;;33.50;58.00;;;;;;4987820;28;20147;-84
2022/08/13 11:06:25;;;;;;;4.70;2.10;;;32.80;59.10;;;;;;4989918;28;20034;-84
2022/08/13 11:08:54;;;;;;;6.28;2.10;;;34.30;59.70;;;;;;4986618;28;20398;-84
2022/08/13 11:11:22;;;;;;;5.18;2.20;;;35.50;58.50;;;;;;4972338;28;20109;-84
2022/08/13 11:13:47;;;;;;;6.35;2.20;;;36.00;57.40;;;;;;4980046;28;20061;-84
2022/08/13 11:19:00;;;;;;;5.45;2.22;;;35.60;58.00;;;;;;4982242;28;20027;-84
2022/08/13 11:21:26;;;;;;;6.90;2.30;;;34.70;57.90;;;;;;4989423;28;20069;-85
2022/08/13 11:23:53;;;;;;;4.60;2.10;;;35.20;56.60;;;;;;4984468;28;20030;-84
2022/08/13 11:26:20;;;;;;;5.38;2.10;;;36.20;56.40;;;;;;4989470;28;20388;-84
2022/08/13 11:28:46;;;;;;;6.18;2.25;;;36.90;54.60;;;;;;4984725;28;20026;-84
2022/08/13 11:31:11;;;;;;;4.68;2.05;;;36.60;55.10;;;;;;4983069;28;20105;-84
2022/08/13 11:33:37;;;;;;;5.00;1.98;;;36.80;56.40;;;;;;4987765;28;20109;-84
2022/08/13 11:36:03;;;;;;;7.38;2.10;;;36.60;56.40;;;;;;4981491;28;20089;-85
2022/08/13 11:38:30;;;;;;;9.02;2.20;;;36.90;55.60;;;;;;4978281;28;20030;-84
2022/08/13 11:40:57;;;;;;;5.78;2.10;;;37.40;55.50;;;;;;4984549;28;20558;-84
2022/08/13 11:43:27;;;;;;;4.78;2.00;;;38.30;54.10;;;;;;5006161;28;20053;-85
2022/08/13 11:45:53;;;;;;;5.65;1.85;;;38.40;53.40;;;;;;4989246;28;20038;-85
2022/08/13 11:48:20;;;;;;;5.13;2.03;;;38.00;54.10;;;;;;4983139;28;20037;-84
2022/08/13 11:50:51;;;;;;;4.97;2.08;;;37.40;54.60;;;;;;4972976;28;20091;-85
2022/08/13 11:53:18;;;;;;;4.93;2.10;;;37.40;54.30;;;;;;4983618;28;20019;-84
2022/08/13 11:55:43;;;;;;;5.20;2.20;;;37.60;53.00;;;;;;4975071;28;20567;-85
2022/08/13 11:58:10;;;;;;;4.07;1.83;;;36.70;53.90;;;;;;4986165;28;20038;-85
2022/08/13 12:00:39;;;;;;;4.85;2.00;;;36.80;55.30;;;;;;4987481;28;20058;-84
2022/08/13 12:03:06;;;;;;;5.75;2.00;;;37.70;54.70;;;;;;4982996;28;20528;-85
2022/08/13 12:05:32;;;;;;;7.03;1.90;;;38.20;53.40;;;;;;4986040;28;20433;-85
2022/08/13 12:07:58;;;;;;;6.10;2.00;;;38.90;52.30;;;;;;4985834;28;20030;-85
2022/08/13 12:10:25;;;;;;;4.75;2.00;;;39.70;52.40;;;;;;4974899;28;20033;-85
2022/08/13 12:12:51;;;;;;;7.22;2.13;;;39.60;53.00;;;;;;4986069;28;20058;-84
2022/08/13 12:15:17;;;;;;;5.90;2.20;;;39.40;53.30;;;;;;4991986;28;20026;-84
2022/08/13 12:17:44;;;;;;;6.88;2.35;;;38.70;53.40;;;;;;4991272;28;20039;-84
2022/08/13 12:20:14;;;;;;;6.78;2.00;;;38.30;53.60;;;;;;4992610;28;20050;-84
2022/08/13 12:22:40;;;;;;;5.50;2.20;;;38.40;53.20;;;;;;4995338;28;20504;-84
2022/08/13 12:25:08;;;;;;;10.20;2.50;;;38.70;53.60;;;;;;4994596;28;20037;-84
2022/08/13 12:27:33;;;;;;;6.55;2.15;;;39.30;52.40;;;;;;4989996;28;20407;-84
2022/08/13 12:29:59;;;;;;;4.90;2.20;;;39.80;52.00;;;;;;4987682;28;20110;-84
2022/08/13 12:32:25;;;;;;;10.65;2.47;;;39.20;51.50;;;;;;5003089;28;20031;-84
2022/08/13 12:34:51;;;;;;;11.60;2.58;;;37.80;52.30;;;;;;4988822;28;20058;-84
2022/08/13 12:37:16;;;;;;;5.70;2.53;;;38.10;52.80;;;;;;4991047;28;20050;-84
2022/08/13 12:39:42;;;;;;;7.40;2.38;;;38.10;53.20;;;;;;4990234;28;20030;-84
2022/08/13 12:42:08;;;;;;;4.78;2.10;;;37.70;52.80;;;;;;4990724;28;20401;-84
2022/08/13 12:44:33;;;;;;;5.95;2.05;;;37.40;52.90;;;;;;4990603;28;20120;-84
2022/08/13 12:47:00;;;;;;;5.68;2.00;;;38.30;52.80;;;;;;4987974;28;20031;-84
2022/08/13 12:49:26;;;;;;;7.50;2.35;;;39.40;52.50;;;;;;4990214;28;20030;-84
2022/08/13 12:51:51;;;;;;;6.97;2.10;;;38.90;51.30;;;;;;4989254;28;20041;-83
2022/08/13 12:54:17;;;;;;;7.45;2.20;;;39.60;51.10;;;;;;5004792;28;20034;-83
2022/08/13 12:56:43;;;;;;;6.40;2.15;;;37.80;52.20;;;;;;4990069;28;20687;-83
2022/08/13 12:59:09;;;;;;;5.53;2.30;;;37.10;52.90;;;;;;4990663;28;20034;-83
2022/08/13 13:01:34;;;;;;;10.88;2.67;;;35.90;53.80;;;;;;4992046;28;20399;-83
2022/08/13 13:04:00;;;;;;;5.10;2.30;;;36.60;54.70;;;;;;4993821;28;20038;-83
2022/08/13 13:06:26;;;;;;;4.65;2.22;;;38.40;53.40;;;;;;4993530;28;20031;-83
2022/08/13 13:08:52;;;;;;;7.05;2.30;;;39.50;52.40;;;;;;5006752;28;20117;-83
2022/08/13 13:11:17;;;;;;;7.57;2.20;;;39.70;51.90;;;;;;4987716;28;20061;-83
2022/08/13 13:13:49;;;;;;;5.47;2.20;;;38.30;52.30;;;;;;4988185;28;20030;-84